createdAt,value
2018-07-16T00:00:17.407Z,18.70
2018-07-16T00:02:45.718Z,21.33
2018-07-16T00:05:14.135Z,16.87
2018-07-16T00:07:42.529Z,17.27
2018-07-16T00:10:10.900Z,16.97
2018-07-16T00:12:39.296Z,16.63
2018-07-16T00:15:07.662Z,16.13
2018-07-16T00:17:36.082Z,15.70
2018-07-16T00:20:04.797Z,16.10
2018-07-16T00:22:33.281Z,17.10
2018-07-16T00:25:01.768Z,18.50
2018-07-16T00:27:30.074Z,15.53
2018-07-16T00:29:58.434Z,15.37
2018-07-16T00:32:26.518Z,14.77
2018-07-16T00:34:54.858Z,20.87
2018-07-16T00:37:23.274Z,21.37
2018-07-16T00:39:51.616Z,20.63
2018-07-16T00:42:20.000Z,20.70
2018-07-16T00:44:48.390Z,17.37
2018-07-16T00:47:16.712Z,23.27
2018-07-16T00:49:45.042Z,19.93
2018-07-16T00:52:13.404Z,24.07
2018-07-16T00:54:41.760Z,18.33
2018-07-16T00:57:10.089Z,20.03
2018-07-16T00:59:38.472Z,19.77
2018-07-16T01:02:06.488Z,23.37
2018-07-16T01:04:34.868Z,22.60
2018-07-16T01:07:03.281Z,15.80
2018-07-16T01:09:31.627Z,21.83
2018-07-16T01:11:59.967Z,17.43
2018-07-16T01:14:28.304Z,16.00
2018-07-16T01:16:56.626Z,18.03
2018-07-16T01:19:24.996Z,29.07
2018-07-16T01:21:53.014Z,26.30
2018-07-16T01:24:21.702Z,23.70
2018-07-16T01:26:50.075Z,24.43
2018-07-16T01:29:18.426Z,23.00
2018-07-16T01:31:46.783Z,19.53
2018-07-16T01:34:15.164Z,20.37
2018-07-16T01:36:43.508Z,16.20
2018-07-16T01:39:11.860Z,21.83
2018-07-16T01:41:40.231Z,20.33
2018-07-16T01:44:08.651Z,19.87
2018-07-16T01:46:37.036Z,25.47
2018-07-16T01:49:05.418Z,22.10
2018-07-16T01:51:33.739Z,15.83
2018-07-16T01:54:02.123Z,19.00
2018-07-16T01:56:30.466Z,21.33
2018-07-16T01:58:58.856Z,19.83
2018-07-16T02:01:27.231Z,17.33
2018-07-16T02:03:55.692Z,16.40
2018-07-16T02:06:24.036Z,17.17
2018-07-16T02:08:52.343Z,16.13
2018-07-16T02:11:20.884Z,19.30
2018-07-16T02:13:49.241Z,15.93
2018-07-16T02:16:17.782Z,14.03
2018-07-16T02:18:46.105Z,16.37
2018-07-16T02:21:14.430Z,13.43
2018-07-16T02:23:42.735Z,15.83
2018-07-16T02:26:11.089Z,20.03
2018-07-16T02:28:39.422Z,19.37
2018-07-16T02:31:07.857Z,18.70
2018-07-16T02:33:35.924Z,20.73
2018-07-16T02:36:04.328Z,15.60
2018-07-16T02:38:32.637Z,17.73
2018-07-16T02:41:01.000Z,16.80
2018-07-16T02:43:29.330Z,15.73
2018-07-16T02:45:57.712Z,21.37
2018-07-16T02:48:26.135Z,15.57
2018-07-16T02:50:54.485Z,12.70
2018-07-16T02:53:22.847Z,15.03
2018-07-16T02:55:51.195Z,14.63
2018-07-16T02:58:19.514Z,13.83
2018-07-16T03:00:47.927Z,14.87
2018-07-16T03:03:16.198Z,19.30
2018-07-16T03:05:44.630Z,26.23
2018-07-16T03:08:12.964Z,20.87
2018-07-16T03:10:41.329Z,24.80
2018-07-16T03:13:09.816Z,16.27
2018-07-16T03:15:38.146Z,22.33
2018-07-16T03:18:06.565Z,15.93
2018-07-16T03:20:34.873Z,17.43
2018-07-16T03:23:03.258Z,22.30
2018-07-16T03:25:31.599Z,18.00
2018-07-16T03:27:59.917Z,16.10
2018-07-16T03:30:28.236Z,19.60
2018-07-16T03:32:56.586Z,23.90
2018-07-16T03:35:24.936Z,19.67
2018-07-16T03:37:53.267Z,13.47
2018-07-16T03:40:21.645Z,18.27
2018-07-16T03:42:49.989Z,19.93
2018-07-16T03:45:18.034Z,25.13
2018-07-16T03:47:46.421Z,24.13
2018-07-16T03:50:14.763Z,24.77
2018-07-16T03:52:43.079Z,29.10
2018-07-16T03:55:11.514Z,21.73
2018-07-16T03:57:39.897Z,16.57
2018-07-16T04:00:08.340Z,18.67
2018-07-16T04:02:36.750Z,15.70
2018-07-16T04:05:05.139Z,18.07
2018-07-16T04:07:33.513Z,18.50
2018-07-16T04:10:01.982Z,28.30
2018-07-16T04:12:30.342Z,25.00
2018-07-16T04:14:58.692Z,20.20
2018-07-16T04:17:27.078Z,19.23
2018-07-16T04:19:55.422Z,29.27
2018-07-16T04:22:23.802Z,23.80
2018-07-16T04:24:52.150Z,36.80
2018-07-16T04:27:20.525Z,25.80
2018-07-16T04:29:48.997Z,21.20
2018-07-16T04:32:17.342Z,22.27
2018-07-16T04:34:45.694Z,15.67
2018-07-16T04:37:14.103Z,30.13
2018-07-16T04:39:42.493Z,15.00
2018-07-16T04:42:10.924Z,20.57
2018-07-16T04:44:39.338Z,22.77
2018-07-16T04:47:07.745Z,17.40
2018-07-16T04:49:36.231Z,24.90
2018-07-16T04:52:04.624Z,21.87
2018-07-16T04:54:33.037Z,19.63
2018-07-16T04:57:01.473Z,26.17
2018-07-16T04:59:29.808Z,24.30
2018-07-16T05:01:58.219Z,21.57
2018-07-16T05:04:26.750Z,27.83
2018-07-16T05:06:55.102Z,12.73
2018-07-16T05:09:23.429Z,21.43
2018-07-16T05:11:52.168Z,16.87
2018-07-16T05:14:20.844Z,18.47
2018-07-16T05:16:49.209Z,15.27
2018-07-16T05:19:17.559Z,16.37
2018-07-16T05:21:46.200Z,17.43
2018-07-16T05:24:14.621Z,15.63
2018-07-16T05:26:42.947Z,13.90
2018-07-16T05:29:11.307Z,13.67
2018-07-16T05:31:39.730Z,20.70
2018-07-16T05:34:08.049Z,10.50
2018-07-16T05:36:36.596Z,13.27
2018-07-16T05:39:05.674Z,13.30
2018-07-16T05:41:34.020Z,36.73
2018-07-16T05:44:02.415Z,11.30
2018-07-16T05:46:30.783Z,13.67
2018-07-16T05:48:59.252Z,11.17
2018-07-16T05:51:27.628Z,11.33
2018-07-16T05:53:56.024Z,10.13
2018-07-16T05:56:24.365Z,10.47
2018-07-16T05:58:52.740Z,11.77
2018-07-16T06:01:20.922Z,10.40
2018-07-16T06:03:49.293Z,10.47
2018-07-16T06:06:17.638Z,9.60
2018-07-16T06:08:46.043Z,10.23
2018-07-16T06:11:14.405Z,8.67
2018-07-16T06:13:42.750Z,9.63
2018-07-16T06:16:11.100Z,10.43
2018-07-16T06:18:39.531Z,9.50
2018-07-16T06:21:07.943Z,9.90
2018-07-16T06:23:36.370Z,9.70
2018-07-16T06:26:04.706Z,9.50
2018-07-16T06:28:33.069Z,9.35
2018-07-16T06:31:01.501Z,8.78
2018-07-16T06:33:29.986Z,9.23
2018-07-16T06:37:28.007Z,14.60
2018-07-16T06:39:56.204Z,11.90
2018-07-16T06:42:24.575Z,8.78
2018-07-16T06:44:52.917Z,9.48
2018-07-16T06:47:21.297Z,7.30
2018-07-16T06:49:49.663Z,8.00
2018-07-16T06:52:18.092Z,9.10
2018-07-16T06:54:46.721Z,7.85
2018-07-16T06:57:15.105Z,9.00
2018-07-16T06:59:43.459Z,42.07
2018-07-16T07:02:12.167Z,9.55
2018-07-16T07:04:40.679Z,8.55
2018-07-16T07:07:08.990Z,8.60
2018-07-16T07:09:37.379Z,9.48
2018-07-16T07:12:05.696Z,12.65
2018-07-16T07:14:34.103Z,8.58
2018-07-16T07:17:02.411Z,9.85
2018-07-16T07:19:30.706Z,8.13
2018-07-16T07:21:59.001Z,9.70
2018-07-16T07:24:27.361Z,8.95
2018-07-16T07:26:55.687Z,6.92
2018-07-16T07:29:24.018Z,7.92
2018-07-16T07:31:52.331Z,45.55
2018-07-16T07:34:20.671Z,9.05
2018-07-16T07:36:48.995Z,7.70
2018-07-16T07:39:17.393Z,7.25
2018-07-16T07:41:45.722Z,7.05
2018-07-16T07:44:14.079Z,7.40
2018-07-16T07:46:42.386Z,7.47
2018-07-16T07:49:10.665Z,6.90
2018-07-16T07:51:39.009Z,6.45
2018-07-16T07:54:07.602Z,6.40
2018-07-16T07:56:35.833Z,7.30
2018-07-16T07:59:04.212Z,5.90
2018-07-16T08:01:32.535Z,5.37
2018-07-16T08:04:00.980Z,5.58
2018-07-16T08:06:29.443Z,4.17
2018-07-16T08:08:57.820Z,4.37
2018-07-16T08:11:26.162Z,9.03
2018-07-16T08:13:54.602Z,4.33
2018-07-16T08:16:22.800Z,6.40
2018-07-16T08:18:51.165Z,6.12
2018-07-16T08:21:19.506Z,5.58
2018-07-16T08:23:47.862Z,4.85
2018-07-16T08:26:16.192Z,7.08
2018-07-16T08:28:44.511Z,5.78
2018-07-16T08:31:12.784Z,4.97
2018-07-16T08:33:41.113Z,5.60
2018-07-16T08:36:09.411Z,5.78
2018-07-16T08:38:37.750Z,8.45
2018-07-16T08:41:06.524Z,5.08
2018-07-16T08:43:34.833Z,5.00
2018-07-16T08:46:03.145Z,5.45
2018-07-16T08:48:31.430Z,6.70
2018-07-16T08:50:59.716Z,5.28
2018-07-16T08:53:28.008Z,4.62
2018-07-16T08:55:56.354Z,13.48
2018-07-16T08:58:24.648Z,5.87
2018-07-16T09:00:52.946Z,5.62
2018-07-16T09:03:21.232Z,4.83
2018-07-16T09:05:54.925Z,6.85
2018-07-16T09:08:23.201Z,4.60
2018-07-16T09:10:51.573Z,4.85
2018-07-16T09:13:19.835Z,6.83
2018-07-16T09:15:48.077Z,6.08
2018-07-16T09:18:16.366Z,13.38
2018-07-16T09:20:44.662Z,4.37
2018-07-16T09:23:12.934Z,4.28
2018-07-16T09:25:41.238Z,4.47
2018-07-16T09:28:09.499Z,5.37
2018-07-16T09:30:37.798Z,5.05
2018-07-16T09:33:06.103Z,4.40
2018-07-16T09:35:34.447Z,4.45
2018-07-16T09:38:02.709Z,4.50
2018-07-16T09:40:31.040Z,5.12
2018-07-16T09:42:59.309Z,4.78
2018-07-16T09:45:27.609Z,4.67
2018-07-16T09:47:55.898Z,5.03
2018-07-16T09:50:24.181Z,7.05
2018-07-16T09:52:52.461Z,5.83
2018-07-16T09:55:20.760Z,5.85
2018-07-16T09:57:49.029Z,6.08
2018-07-16T10:00:22.418Z,8.63
2018-07-16T10:02:50.759Z,5.67
2018-07-16T10:05:19.080Z,6.22
2018-07-16T10:07:47.359Z,5.55
2018-07-16T10:10:15.676Z,6.25
2018-07-16T10:12:43.949Z,5.72
2018-07-16T10:15:12.408Z,5.80
2018-07-16T10:17:40.806Z,6.37
2018-07-16T10:20:09.215Z,6.50
2018-07-16T10:22:37.535Z,7.60
2018-07-16T10:25:06.021Z,6.50
2018-07-16T10:27:34.387Z,6.40
2018-07-16T10:30:02.755Z,6.83
2018-07-16T10:32:30.811Z,6.75
2018-07-16T10:34:59.127Z,6.28
2018-07-16T10:37:27.516Z,5.90
2018-07-16T10:39:56.008Z,6.65
2018-07-16T10:42:24.471Z,8.58
2018-07-16T10:44:52.801Z,6.25
2018-07-16T10:47:21.161Z,8.38
2018-07-16T10:49:49.567Z,6.45
2018-07-16T10:52:17.762Z,5.83
2018-07-16T10:54:46.342Z,6.45
2018-07-16T10:57:15.044Z,6.00
2018-07-16T10:59:43.421Z,5.17
2018-07-16T11:02:11.802Z,5.53
2018-07-16T11:04:40.128Z,4.28
2018-07-16T11:07:08.448Z,4.97
2018-07-16T11:09:36.726Z,4.50
2018-07-16T11:12:05.016Z,4.92
2018-07-16T11:14:39.742Z,4.55
2018-07-16T11:17:08.372Z,4.20
2018-07-16T11:19:36.640Z,4.40
2018-07-16T11:22:04.965Z,5.40
2018-07-16T11:24:33.260Z,4.85
2018-07-16T11:27:01.544Z,3.62
2018-07-16T11:29:29.820Z,4.35
2018-07-16T11:31:58.115Z,4.15
2018-07-16T11:34:26.426Z,4.58
2018-07-16T11:36:54.720Z,4.70
2018-07-16T11:39:23.017Z,4.45
2018-07-16T11:41:51.311Z,4.85
2018-07-16T11:44:19.608Z,4.50
2018-07-16T11:46:47.898Z,4.45
2018-07-16T11:49:16.425Z,4.35
2018-07-16T11:51:44.711Z,4.78
2018-07-16T11:54:13.025Z,6.45
2018-07-16T11:56:41.319Z,11.30
2018-07-16T11:59:09.600Z,4.62
2018-07-16T12:01:37.890Z,5.30
2018-07-16T12:04:06.267Z,5.33
2018-07-16T12:06:34.581Z,5.33
2018-07-16T12:09:03.032Z,6.28
2018-07-16T12:11:31.279Z,4.50
2018-07-16T12:13:59.593Z,7.83
2018-07-16T12:16:27.871Z,8.53
2018-07-16T12:18:56.209Z,5.05
2018-07-16T12:21:24.672Z,5.65
2018-07-16T12:23:52.954Z,5.17
2018-07-16T12:26:27.724Z,5.28
2018-07-16T12:28:56.032Z,6.37
2018-07-16T12:31:24.297Z,5.30
2018-07-16T12:33:52.556Z,5.25
2018-07-16T12:36:20.902Z,5.95
2018-07-16T12:38:49.183Z,4.95
2018-07-16T12:41:17.541Z,5.05
2018-07-16T12:43:45.753Z,5.35
2018-07-16T12:46:14.062Z,4.72
2018-07-16T12:48:42.368Z,4.58
2018-07-16T12:51:10.769Z,4.72
2018-07-16T12:53:39.047Z,5.20
2018-07-16T12:56:07.375Z,6.00
2018-07-16T12:58:35.718Z,5.08
2018-07-16T13:01:04.094Z,5.10
2018-07-16T13:03:32.364Z,5.37
2018-07-16T13:06:00.695Z,5.95
2018-07-16T13:08:28.963Z,5.58
2018-07-16T13:10:57.252Z,5.28
2018-07-16T13:13:25.612Z,6.15
2018-07-16T13:15:53.945Z,7.55
2018-07-16T13:18:22.255Z,6.10
2018-07-16T13:20:50.598Z,6.22
2018-07-16T13:23:18.989Z,9.13
2018-07-16T13:25:47.335Z,5.37
2018-07-16T13:28:15.660Z,5.67
2018-07-16T13:30:44.020Z,6.65
2018-07-16T13:33:12.438Z,6.55
2018-07-16T13:35:40.737Z,5.80
2018-07-16T13:38:09.087Z,5.60
2018-07-16T13:40:37.377Z,5.47
2018-07-16T13:43:05.939Z,6.03
2018-07-16T13:45:34.208Z,6.12
2018-07-16T13:48:02.551Z,6.17
2018-07-16T13:50:31.019Z,6.70
2018-07-16T13:52:59.319Z,5.55
2018-07-16T13:55:27.650Z,6.65
2018-07-16T13:57:55.921Z,7.80
2018-07-16T14:00:24.205Z,6.00
2018-07-16T14:02:52.240Z,7.12
2018-07-16T14:05:20.544Z,6.50
2018-07-16T14:07:48.843Z,7.35
2018-07-16T14:13:48.548Z,15.40
2018-07-16T14:16:16.817Z,11.83
2018-07-16T14:18:45.120Z,28.27
2018-07-16T14:21:13.402Z,11.18
2018-07-16T14:23:41.717Z,10.93
2018-07-16T14:26:09.987Z,10.20
2018-07-16T14:28:38.297Z,10.00
2018-07-16T14:31:06.592Z,11.00
2018-07-16T14:33:34.646Z,9.13
2018-07-16T14:36:02.937Z,11.13
2018-07-16T14:38:31.231Z,9.10
2018-07-16T14:40:59.525Z,9.33
2018-07-16T14:43:27.859Z,9.63
2018-07-16T14:45:56.186Z,9.30
2018-07-16T14:48:24.468Z,12.77
2018-07-16T14:50:52.801Z,11.53
2018-07-16T14:53:21.090Z,10.37
2018-07-16T14:55:49.453Z,9.17
2018-07-16T14:58:17.798Z,8.53
2018-07-16T15:00:46.301Z,7.77
2018-07-16T15:03:14.661Z,7.03
2018-07-16T15:05:43.004Z,8.10
2018-07-16T15:08:11.394Z,9.43
2018-07-16T15:10:39.724Z,7.10
2018-07-16T15:13:08.118Z,9.47
2018-07-16T15:15:36.425Z,10.83
2018-07-16T15:18:05.242Z,7.30
2018-07-16T15:20:33.738Z,6.93
2018-07-16T15:23:03.240Z,7.25
2018-07-16T15:25:31.591Z,7.43
2018-07-16T15:28:00.033Z,7.87
2018-07-16T15:30:28.372Z,7.05
2018-07-16T15:32:56.854Z,7.60
2018-07-16T15:35:25.157Z,5.85
2018-07-16T15:37:53.772Z,11.27
2018-07-16T15:40:22.178Z,13.80
2018-07-16T15:42:50.366Z,9.13
2018-07-16T15:45:18.772Z,7.92
2018-07-16T15:47:47.065Z,7.58
2018-07-16T15:50:15.344Z,7.45
2018-07-16T15:52:43.672Z,7.17
2018-07-16T15:55:11.979Z,7.05
2018-07-16T15:57:40.275Z,8.08
2018-07-16T16:00:08.604Z,7.72
2018-07-16T16:02:37.084Z,8.08
2018-07-16T16:05:05.515Z,7.53
2018-07-16T16:07:33.807Z,7.15
2018-07-16T16:10:03.366Z,6.65
2018-07-16T16:12:31.645Z,6.87
2018-07-16T16:15:00.020Z,7.25
2018-07-16T16:17:28.348Z,7.08
2018-07-16T16:19:56.706Z,6.83
2018-07-16T16:22:24.968Z,8.53
2018-07-16T16:24:53.254Z,8.00
2018-07-16T16:27:21.518Z,7.53
2018-07-16T16:29:49.847Z,7.42
2018-07-16T16:32:18.135Z,7.83
2018-07-16T16:34:46.643Z,7.22
2018-07-16T16:37:14.980Z,7.58
2018-07-16T16:39:43.395Z,8.60
2018-07-16T16:42:11.815Z,8.25
2018-07-16T16:44:40.080Z,8.08
2018-07-16T16:47:09.296Z,7.83
2018-07-16T16:49:37.648Z,10.25
2018-07-16T16:52:06.149Z,9.23
2018-07-16T16:54:34.510Z,10.25
2018-07-16T16:57:02.845Z,7.25
2018-07-16T16:59:31.354Z,6.67
2018-07-16T17:01:59.840Z,7.60
2018-07-16T17:04:28.174Z,6.83
2018-07-16T17:06:56.485Z,6.85
2018-07-16T17:09:24.856Z,9.38
2018-07-16T17:11:53.305Z,13.13
2018-07-16T17:14:21.704Z,23.92
2018-07-16T17:16:50.182Z,12.45
2018-07-16T17:19:18.609Z,6.33
2018-07-16T17:21:46.968Z,5.42
2018-07-16T17:24:15.292Z,5.90
2018-07-16T17:26:43.668Z,5.65
2018-07-16T17:29:11.996Z,7.10
2018-07-16T17:31:40.391Z,5.22
2018-07-16T17:34:08.744Z,5.80
2018-07-16T17:36:37.129Z,5.72
2018-07-16T17:39:07.475Z,6.22
2018-07-16T17:41:35.827Z,6.50
2018-07-16T17:44:04.189Z,7.25
2018-07-16T17:46:32.683Z,6.60
2018-07-16T17:49:01.032Z,9.73
2018-07-16T17:51:29.783Z,7.33
2018-07-16T17:53:58.292Z,10.75
2018-07-16T17:56:26.783Z,9.18
2018-07-16T17:58:55.320Z,23.42
2018-07-16T18:01:23.857Z,21.73
2018-07-16T18:03:52.221Z,13.75
2018-07-16T18:06:20.706Z,11.83
2018-07-16T18:08:49.231Z,9.83
2018-07-16T18:11:17.627Z,9.33
2018-07-16T18:13:45.978Z,7.20
2018-07-16T18:16:14.341Z,7.63
2018-07-16T18:18:43.197Z,7.13
2018-07-16T18:21:11.602Z,7.77
2018-07-16T18:23:39.937Z,7.63
2018-07-16T18:26:08.359Z,7.53
2018-07-16T18:28:36.762Z,7.67
2018-07-16T18:31:05.162Z,7.77
2018-07-16T18:33:33.560Z,7.70
2018-07-16T18:36:02.036Z,8.23
2018-07-16T18:38:30.464Z,8.77
2018-07-16T18:40:58.938Z,8.57
2018-07-16T18:43:27.351Z,10.90
2018-07-16T18:45:55.783Z,11.70
2018-07-16T18:48:24.231Z,10.33
2018-07-16T18:50:52.637Z,9.90
2018-07-16T18:53:21.350Z,9.07
2018-07-16T18:55:49.877Z,8.50
2018-07-16T18:58:18.251Z,8.57
2018-07-16T19:00:46.678Z,8.33
2018-07-16T19:03:15.099Z,7.63
2018-07-16T19:05:43.576Z,7.87
2018-07-16T19:08:11.970Z,8.00
2018-07-16T19:10:40.473Z,8.60
2018-07-16T19:13:08.887Z,8.37
2018-07-16T19:15:37.442Z,7.03
2018-07-16T19:18:06.147Z,8.73
2018-07-16T19:20:34.682Z,8.50
2018-07-16T19:23:03.127Z,8.57
2018-07-16T19:25:31.576Z,9.30
2018-07-16T19:27:59.983Z,9.60
2018-07-16T19:30:28.429Z,8.13
2018-07-16T19:32:56.985Z,9.27
2018-07-16T19:35:25.371Z,8.50
2018-07-16T19:37:54.240Z,9.10
2018-07-16T19:40:22.709Z,8.63
2018-07-16T19:42:51.163Z,11.87
2018-07-16T19:45:19.654Z,9.00
2018-07-16T19:47:48.077Z,9.07
2018-07-16T19:50:16.599Z,9.83
2018-07-16T19:52:45.079Z,9.47
2018-07-16T19:55:13.663Z,9.80
2018-07-16T19:57:42.161Z,9.37
2018-07-16T20:00:10.511Z,10.60
2018-07-16T20:02:38.890Z,9.63
2018-07-16T20:05:07.373Z,8.30
2018-07-16T20:07:35.776Z,9.40
2018-07-16T20:10:04.325Z,8.17
2018-07-16T20:12:35.145Z,9.10
2018-07-16T20:15:04.214Z,8.80
2018-07-16T20:17:32.525Z,10.43
2018-07-16T20:20:01.213Z,10.20
2018-07-16T20:22:30.312Z,12.33
2018-07-16T20:24:59.322Z,9.37
2018-07-16T20:27:28.048Z,8.57
2018-07-16T20:29:56.380Z,9.77
2018-07-16T20:32:24.773Z,9.43
2018-07-16T20:34:53.240Z,9.70
2018-07-16T20:37:21.635Z,9.23
2018-07-16T20:39:50.112Z,9.50
2018-07-16T20:42:18.495Z,9.57
2018-07-16T20:44:46.974Z,9.13
2018-07-16T20:47:15.360Z,10.03
2018-07-16T20:49:43.717Z,11.17
2018-07-16T20:52:18.736Z,8.80
2018-07-16T20:54:47.129Z,9.80
2018-07-16T20:57:15.533Z,9.07
2018-07-16T20:59:43.916Z,9.10
2018-07-16T21:02:12.357Z,9.10
2018-07-16T21:04:40.762Z,10.30
2018-07-16T21:07:09.200Z,10.17
2018-07-16T21:09:37.605Z,9.60
2018-07-16T21:12:06.171Z,9.90
2018-07-16T21:14:34.693Z,9.90
2018-07-16T21:17:03.194Z,9.23
2018-07-16T21:19:31.520Z,10.33
2018-07-16T21:22:00.188Z,14.60
2018-07-16T21:24:28.562Z,8.83
2018-07-16T21:26:56.935Z,11.00
2018-07-16T21:29:25.331Z,9.63
2018-07-16T21:31:53.753Z,9.47
2018-07-16T21:34:22.115Z,9.07
2018-07-16T21:36:50.536Z,8.40
2018-07-16T21:39:18.945Z,9.03
2018-07-16T21:41:47.403Z,9.00
2018-07-16T21:44:15.796Z,10.77
2018-07-16T21:46:44.306Z,10.00
2018-07-16T21:49:12.709Z,10.00
2018-07-16T21:51:41.142Z,9.97
2018-07-16T21:54:09.535Z,10.03
2018-07-16T21:56:38.832Z,10.60
2018-07-16T21:59:07.257Z,9.30
2018-07-16T22:01:35.686Z,8.83
2018-07-16T22:04:04.109Z,9.37
2018-07-16T22:06:32.541Z,9.30
2018-07-16T22:09:01.198Z,9.60
2018-07-16T22:11:29.595Z,9.33
2018-07-16T22:13:57.963Z,9.30
2018-07-16T22:16:26.384Z,9.13
2018-07-16T22:18:54.827Z,9.77
2018-07-16T22:21:23.242Z,10.00
2018-07-16T22:23:51.290Z,8.20
2018-07-16T22:26:19.811Z,8.13
2018-07-16T22:28:48.191Z,9.93
2018-07-16T22:31:16.666Z,11.07
2018-07-16T22:33:45.117Z,12.20
2018-07-16T22:36:13.706Z,11.27
2018-07-16T22:38:42.122Z,11.20
2018-07-16T22:41:10.512Z,10.90
2018-07-16T22:43:38.907Z,9.57
2018-07-16T22:46:07.414Z,9.10
2018-07-16T22:48:35.769Z,9.63
2018-07-16T22:51:04.371Z,8.50
2018-07-16T22:53:32.751Z,10.70
2018-07-16T22:56:01.141Z,10.83
2018-07-16T22:58:29.500Z,9.60
2018-07-16T23:00:57.857Z,10.70
2018-07-16T23:03:26.229Z,10.50
2018-07-16T23:05:54.611Z,7.70
2018-07-16T23:08:22.772Z,6.80
2018-07-16T23:10:51.141Z,7.73
2018-07-16T23:13:19.600Z,11.70
2018-07-16T23:15:47.973Z,7.97
2018-07-16T23:18:16.366Z,7.37
2018-07-16T23:20:44.705Z,8.73
2018-07-16T23:23:13.191Z,8.60
2018-07-16T23:25:41.600Z,11.30
2018-07-16T23:28:10.015Z,8.63
2018-07-16T23:30:38.422Z,9.63
2018-07-16T23:33:06.889Z,9.37
2018-07-16T23:35:35.288Z,9.50
2018-07-16T23:38:03.748Z,10.23
2018-07-16T23:40:32.188Z,11.00
2018-07-16T23:43:00.529Z,10.33
2018-07-16T23:45:29.113Z,9.80
2018-07-16T23:47:57.517Z,13.27
2018-07-16T23:50:25.908Z,10.13
2018-07-16T23:52:54.320Z,11.20
2018-07-16T23:55:22.703Z,11.73
2018-07-16T23:57:51.124Z,10.83
